createdAt,value
2023-03-28T00:00:48.752Z,19.35
2023-03-28T00:03:18.855Z,7.72
2023-03-28T00:05:48.995Z,11.00
2023-03-28T00:08:16.973Z,13.65
2023-03-28T00:10:44.266Z,13.75
2023-03-28T00:13:13.993Z,9.23
2023-03-28T00:15:41.879Z,9.85
2023-03-28T00:18:11.632Z,11.02
2023-03-28T00:20:39.632Z,10.43
2023-03-28T00:23:08.118Z,12.15
2023-03-28T00:25:35.708Z,8.05
2023-03-28T00:28:03.420Z,11.15
2023-03-28T00:30:30.842Z,13.48
2023-03-28T00:32:58.652Z,14.50
2023-03-28T00:35:25.840Z,9.65
2023-03-28T00:37:53.695Z,14.18
2023-03-28T00:40:21.886Z,7.70
2023-03-28T00:42:48.957Z,20.52
2023-03-28T00:45:16.080Z,14.55
2023-03-28T00:47:58.869Z,11.82
2023-03-28T00:50:27.408Z,8.82
2023-03-28T00:52:54.482Z,13.43
2023-03-28T00:55:26.068Z,10.75
2023-03-28T00:57:53.185Z,14.02
2023-03-28T01:00:21.031Z,10.35
2023-03-28T01:02:52.335Z,14.00
2023-03-28T01:05:27.245Z,7.45
2023-03-28T01:07:56.453Z,11.45
2023-03-28T01:10:23.511Z,13.85
2023-03-28T01:12:50.596Z,13.27
2023-03-28T01:15:17.874Z,11.75
2023-03-28T01:17:46.435Z,11.98
2023-03-28T01:20:29.359Z,12.38
2023-03-28T01:23:04.978Z,23.75
2023-03-28T01:25:41.473Z,17.75
2023-03-28T01:28:08.743Z,16.08
2023-03-28T01:30:41.525Z,14.95
2023-03-28T01:33:11.452Z,16.23
2023-03-28T01:35:46.416Z,14.05
2023-03-28T01:38:22.756Z,11.27
2023-03-28T01:40:52.548Z,15.77
2023-03-28T01:43:19.623Z,8.88
2023-03-28T01:45:50.507Z,10.43
2023-03-28T01:48:20.779Z,10.90
2023-03-28T01:50:52.701Z,12.60
2023-03-28T01:53:22.141Z,12.07
2023-03-28T01:55:55.319Z,7.90
2023-03-28T01:58:29.369Z,16.17
2023-03-28T02:01:16.725Z,14.52
2023-03-28T02:03:45.654Z,15.38
2023-03-28T02:06:12.739Z,13.80
2023-03-28T02:08:40.312Z,17.05
2023-03-28T02:11:07.455Z,14.20
2023-03-28T02:13:35.322Z,16.77
2023-03-28T02:16:02.980Z,15.82
2023-03-28T02:18:31.616Z,16.67
2023-03-28T02:21:00.324Z,16.52
2023-03-28T02:23:29.116Z,14.15
2023-03-28T02:25:56.353Z,12.13
2023-03-28T02:28:23.769Z,16.10
2023-03-28T02:30:51.719Z,15.40
2023-03-28T02:33:33.606Z,13.25
2023-03-28T02:36:04.009Z,12.18
2023-03-28T02:38:34.201Z,18.58
2023-03-28T02:41:19.410Z,19.50
2023-03-28T02:43:49.180Z,15.25
2023-03-28T02:46:19.858Z,18.70
2023-03-28T02:49:06.052Z,20.33
2023-03-28T02:51:50.677Z,14.35
2023-03-28T02:54:25.848Z,14.10
2023-03-28T02:57:01.867Z,17.02
2023-03-28T02:59:33.988Z,24.13
2023-03-28T03:02:01.122Z,16.88
2023-03-28T03:04:28.181Z,17.23
2023-03-28T03:06:55.292Z,16.60
2023-03-28T03:09:23.045Z,14.00
2023-03-28T03:11:50.219Z,13.18
2023-03-28T03:14:17.344Z,20.25
2023-03-28T03:16:44.475Z,13.73
2023-03-28T03:19:11.935Z,14.57
2023-03-28T03:21:39.000Z,16.30
2023-03-28T03:24:06.264Z,19.50
2023-03-28T03:26:33.309Z,19.90
2023-03-28T03:29:00.913Z,15.23
2023-03-28T03:31:28.109Z,18.73
2023-03-28T03:33:55.402Z,18.63
2023-03-28T03:36:22.455Z,20.98
2023-03-28T03:38:49.504Z,24.08
2023-03-28T03:41:16.560Z,22.90
2023-03-28T03:43:45.228Z,23.42
2023-03-28T03:46:13.716Z,18.73
2023-03-28T03:48:49.384Z,15.23
2023-03-28T03:51:17.535Z,15.38
2023-03-28T03:53:45.011Z,18.45
2023-03-28T03:56:12.100Z,18.92
2023-03-28T03:58:39.172Z,28.63
2023-03-28T04:01:06.373Z,25.17
2023-03-28T04:03:34.331Z,20.05
2023-03-28T04:06:02.036Z,22.80
2023-03-28T04:08:29.360Z,20.98
2023-03-28T04:10:56.412Z,24.00
2023-03-28T04:13:23.416Z,24.77
2023-03-28T04:15:50.583Z,16.90
2023-03-28T04:18:20.337Z,19.60
2023-03-28T04:20:49.536Z,30.00
2023-03-28T04:23:18.485Z,22.80
2023-03-28T04:25:45.562Z,28.95
2023-03-28T04:28:12.883Z,23.90
2023-03-28T04:30:41.609Z,21.27
2023-03-28T04:33:08.776Z,28.63
2023-03-28T04:35:35.844Z,25.60
2023-03-28T04:38:03.089Z,32.67
2023-03-28T04:40:30.157Z,26.35
2023-03-28T04:42:57.283Z,28.17
2023-03-28T04:45:26.416Z,32.28
2023-03-28T04:47:53.883Z,21.73
2023-03-28T04:50:21.017Z,27.73
2023-03-28T04:52:48.053Z,28.73
2023-03-28T04:55:16.094Z,33.22
2023-03-28T04:57:43.270Z,30.70
2023-03-28T05:00:12.895Z,31.58
2023-03-28T05:02:40.290Z,24.90
2023-03-28T05:05:07.621Z,22.30
2023-03-28T05:07:35.196Z,28.08
2023-03-28T05:10:02.298Z,25.08
2023-03-28T05:12:29.355Z,29.45
2023-03-28T05:14:56.436Z,34.03
2023-03-28T05:17:24.630Z,30.17
2023-03-28T05:19:51.704Z,26.65
2023-03-28T05:22:19.040Z,30.65
2023-03-28T05:24:46.086Z,25.70
2023-03-28T05:27:13.208Z,26.50
2023-03-28T05:29:40.268Z,28.40
2023-03-28T05:32:07.614Z,36.55
2023-03-28T05:34:36.091Z,34.25
2023-03-28T05:37:03.158Z,31.60
2023-03-28T05:39:30.185Z,27.10
2023-03-28T05:41:57.304Z,31.80
2023-03-28T05:44:24.392Z,33.33
2023-03-28T05:46:51.467Z,28.65
2023-03-28T05:49:18.591Z,34.78
2023-03-28T05:51:45.671Z,34.53
2023-03-28T05:54:13.001Z,35.78
2023-03-28T05:56:40.119Z,33.05
2023-03-28T05:59:07.252Z,34.25
2023-03-28T06:01:34.876Z,32.55
2023-03-28T06:04:01.966Z,29.80
2023-03-28T06:06:29.054Z,30.05
2023-03-28T06:08:56.090Z,25.75
2023-03-28T06:11:23.111Z,34.95
2023-03-28T06:13:50.348Z,35.65
2023-03-28T06:16:17.486Z,50.17
2023-03-28T06:18:44.581Z,32.55
2023-03-28T06:21:11.623Z,39.42
2023-03-28T06:23:39.482Z,40.90
2023-03-28T06:26:06.699Z,38.38
2023-03-28T06:28:33.782Z,28.65
2023-03-28T06:31:01.472Z,36.03
2023-03-28T06:33:28.686Z,33.35
2023-03-28T06:35:55.884Z,27.35
2023-03-28T06:38:26.314Z,24.52
2023-03-28T06:40:53.378Z,30.63
2023-03-28T06:43:20.581Z,30.30
2023-03-28T06:45:47.652Z,27.60
2023-03-28T06:48:14.705Z,29.52
2023-03-28T06:50:41.833Z,28.50
2023-03-28T06:53:08.992Z,24.30
2023-03-28T06:55:36.144Z,21.73
2023-03-28T06:58:03.247Z,23.75
2023-03-28T07:00:30.312Z,25.70
2023-03-28T07:02:57.430Z,21.75
2023-03-28T07:05:24.550Z,24.65
2023-03-28T07:07:52.739Z,16.77
2023-03-28T07:10:19.820Z,15.98
2023-03-28T07:12:46.840Z,19.90
2023-03-28T07:15:13.959Z,21.17
2023-03-28T07:17:41.203Z,24.30
2023-03-28T07:20:08.467Z,19.20
2023-03-28T07:22:35.711Z,24.40
2023-03-28T07:25:02.817Z,22.27
2023-03-28T07:27:29.816Z,22.75
2023-03-28T07:29:56.871Z,17.05
2023-03-28T07:32:24.047Z,20.80
2023-03-28T07:34:51.362Z,16.13
2023-03-28T07:37:18.398Z,15.32
2023-03-28T07:39:45.784Z,17.92
2023-03-28T07:42:13.226Z,15.05
2023-03-28T07:44:42.195Z,14.77
2023-03-28T07:47:09.908Z,16.70
2023-03-28T07:49:37.064Z,19.90
2023-03-28T07:52:04.447Z,17.85
2023-03-28T07:54:33.153Z,21.13
2023-03-28T07:57:00.615Z,16.98
2023-03-28T07:59:27.706Z,15.60
2023-03-28T08:01:54.791Z,17.63
2023-03-28T08:04:21.820Z,18.17
2023-03-28T08:06:48.897Z,15.35
2023-03-28T08:09:16.832Z,22.55
2023-03-28T08:11:44.099Z,16.40
2023-03-28T08:14:12.143Z,16.48
2023-03-28T08:16:39.299Z,16.13
2023-03-28T08:19:11.159Z,16.30
2023-03-28T08:21:39.039Z,19.63
2023-03-28T08:24:07.669Z,13.10
2023-03-28T08:26:34.948Z,14.48
2023-03-28T08:29:02.221Z,12.65
2023-03-28T08:31:29.397Z,15.35
2023-03-28T08:33:56.568Z,10.18
2023-03-28T08:36:24.328Z,15.77
2023-03-28T08:38:51.481Z,15.07
2023-03-28T08:41:18.599Z,12.00
2023-03-28T08:43:50.993Z,16.40
2023-03-28T08:46:18.638Z,12.90
2023-03-28T08:48:45.948Z,15.10
2023-03-28T08:51:31.632Z,15.63
2023-03-28T08:54:05.067Z,9.20
2023-03-28T08:56:32.401Z,12.02
2023-03-28T08:59:04.704Z,14.18
2023-03-28T09:01:32.773Z,14.18
2023-03-28T09:04:00.765Z,12.40
2023-03-28T09:06:46.132Z,19.27
2023-03-28T09:09:25.534Z,13.48
2023-03-28T09:12:07.652Z,11.18
2023-03-28T09:14:53.204Z,10.13
2023-03-28T09:17:39.087Z,10.80
2023-03-28T09:20:11.350Z,13.57
2023-03-28T09:22:52.955Z,13.35
2023-03-28T09:25:22.508Z,12.52
2023-03-28T09:27:52.600Z,10.35
2023-03-28T09:30:22.737Z,13.25
2023-03-28T09:32:49.930Z,9.27
2023-03-28T09:35:21.322Z,12.30
2023-03-28T09:37:51.672Z,9.97
2023-03-28T09:40:20.915Z,7.15
2023-03-28T09:42:51.105Z,12.30
2023-03-28T09:45:27.118Z,7.97
2023-03-28T09:47:54.262Z,9.75
2023-03-28T09:50:21.763Z,12.25
2023-03-28T09:52:49.482Z,10.70
2023-03-28T09:55:23.299Z,10.77
2023-03-28T09:58:02.650Z,10.90
2023-03-28T10:00:29.851Z,10.05
2023-03-28T10:02:56.947Z,9.65
2023-03-28T10:05:38.300Z,8.60
2023-03-28T10:08:24.197Z,7.95
2023-03-28T10:10:58.351Z,11.25
2023-03-28T10:13:26.243Z,9.32
2023-03-28T10:15:53.684Z,9.18
2023-03-28T10:18:21.083Z,8.20
2023-03-28T10:20:50.621Z,8.50
2023-03-28T10:23:17.676Z,11.60
2023-03-28T10:25:45.891Z,10.57
2023-03-28T10:28:14.894Z,8.60
2023-03-28T10:30:42.342Z,11.02
2023-03-28T10:33:10.561Z,8.73
2023-03-28T10:35:41.375Z,8.13
2023-03-28T10:38:15.272Z,8.57
2023-03-28T10:40:42.429Z,5.47
2023-03-28T10:43:13.002Z,5.10
2023-03-28T10:48:10.418Z,5.68
2023-03-28T10:50:38.896Z,7.35
2023-03-28T10:53:21.329Z,6.57
2023-03-28T10:55:54.304Z,7.18
2023-03-28T10:58:21.912Z,8.73
2023-03-28T11:00:52.838Z,6.38
2023-03-28T11:03:39.148Z,7.18
2023-03-28T11:06:10.251Z,6.57
2023-03-28T11:08:40.311Z,8.13
2023-03-28T11:11:36.109Z,3.92
2023-03-28T11:14:12.982Z,6.45
2023-03-28T11:16:49.227Z,7.38
2023-03-28T11:19:18.826Z,7.68
2023-03-28T11:21:52.321Z,9.13
2023-03-28T11:24:54.707Z,7.55
2023-03-28T11:27:40.392Z,6.15
2023-03-28T11:30:08.325Z,4.40
2023-03-28T11:32:38.539Z,3.33
2023-03-28T11:35:16.466Z,6.07
2023-03-28T11:37:43.541Z,6.22
2023-03-28T11:40:16.317Z,9.02
2023-03-28T11:42:48.026Z,6.15
2023-03-28T11:45:30.879Z,5.97
2023-03-28T11:48:09.390Z,4.93
2023-03-28T11:50:46.609Z,8.10
2023-03-28T11:53:15.361Z,7.30
2023-03-28T11:55:45.747Z,7.40
2023-03-28T11:58:18.419Z,4.13
2023-03-28T12:01:04.654Z,6.15
2023-03-28T12:03:38.809Z,6.07
2023-03-28T12:06:27.032Z,4.68
2023-03-28T12:08:54.159Z,9.73
2023-03-28T12:11:23.433Z,6.28
2023-03-28T12:14:11.080Z,6.10
2023-03-28T12:16:42.260Z,5.38
2023-03-28T12:19:11.071Z,4.25
2023-03-28T12:21:38.684Z,4.45
2023-03-28T12:24:14.445Z,6.15
2023-03-28T12:27:00.552Z,7.63
2023-03-28T12:29:30.847Z,5.25
2023-03-28T12:32:00.203Z,8.27
2023-03-28T12:34:32.540Z,7.18
2023-03-28T12:37:06.225Z,5.97
2023-03-28T12:39:42.435Z,5.82
2023-03-28T12:42:10.292Z,3.33
2023-03-28T12:44:45.315Z,4.20
2023-03-28T12:47:13.960Z,5.70
2023-03-28T12:49:52.938Z,3.67
2023-03-28T12:52:21.509Z,7.80
2023-03-28T12:54:54.840Z,6.78
2023-03-28T12:57:43.837Z,6.15
2023-03-28T13:00:26.614Z,2.28
2023-03-28T13:03:03.434Z,3.38
2023-03-28T13:05:32.419Z,5.22
2023-03-28T13:08:07.392Z,4.20
2023-03-28T13:10:42.234Z,6.97
2023-03-28T13:13:12.370Z,6.50
2023-03-28T13:15:58.809Z,7.78
2023-03-28T13:18:26.413Z,7.35
2023-03-28T13:20:53.571Z,10.68
2023-03-28T13:23:24.946Z,5.63
2023-03-28T13:25:55.639Z,6.30
2023-03-28T13:28:29.907Z,5.53
2023-03-28T13:31:07.486Z,10.25
2023-03-28T13:33:35.294Z,6.72
2023-03-28T13:36:02.653Z,18.13
2023-03-28T13:38:29.999Z,4.50
2023-03-28T13:41:07.011Z,9.35
2023-03-28T13:43:34.120Z,4.25
2023-03-28T13:46:03.251Z,12.05
2023-03-28T13:48:34.325Z,4.53
2023-03-28T13:51:02.157Z,8.20
2023-03-28T13:53:46.349Z,5.68
2023-03-28T13:56:18.804Z,6.75
2023-03-28T13:58:47.327Z,7.43
2023-03-28T14:01:16.196Z,7.20
2023-03-28T14:03:45.300Z,3.97
2023-03-28T14:06:22.397Z,4.70
2023-03-28T14:08:50.354Z,6.72
2023-03-28T14:11:18.387Z,6.05
2023-03-28T14:13:45.949Z,10.68
2023-03-28T14:16:13.169Z,9.98
2023-03-28T14:18:44.543Z,6.78
2023-03-28T14:21:11.618Z,4.97
2023-03-28T14:23:39.593Z,4.65
2023-03-28T14:26:14.287Z,6.63
2023-03-28T14:28:41.641Z,4.55
2023-03-28T14:31:15.509Z,5.28
2023-03-28T14:33:47.593Z,2.78
2023-03-28T14:36:16.397Z,6.68
2023-03-28T14:38:43.466Z,7.18
2023-03-28T14:41:15.049Z,3.30
2023-03-28T14:43:42.074Z,4.47
2023-03-28T14:46:09.810Z,4.70
2023-03-28T14:48:37.111Z,5.38
2023-03-28T14:51:05.880Z,4.63
2023-03-28T14:53:37.595Z,6.30
2023-03-28T14:56:08.860Z,6.20
2023-03-28T14:58:36.376Z,6.07
2023-03-28T15:01:04.593Z,8.55
2023-03-28T15:03:41.940Z,3.85
2023-03-28T15:06:09.439Z,3.13
2023-03-28T15:08:38.075Z,4.85
2023-03-28T15:11:06.470Z,6.82
2023-03-28T15:13:34.217Z,7.30
2023-03-28T15:16:01.723Z,3.05
2023-03-28T15:18:29.903Z,4.82
2023-03-28T15:20:57.960Z,5.05
2023-03-28T15:23:29.345Z,3.75
2023-03-28T15:25:56.628Z,5.10
2023-03-28T15:28:23.684Z,7.88
2023-03-28T15:30:50.759Z,5.28
2023-03-28T15:33:19.318Z,6.70
2023-03-28T15:35:46.776Z,10.60
2023-03-28T15:38:13.851Z,7.40
2023-03-28T15:40:41.914Z,7.43
2023-03-28T15:43:09.566Z,7.07
2023-03-28T15:45:38.819Z,5.47
2023-03-28T15:48:06.094Z,4.38
2023-03-28T15:50:34.718Z,8.18
2023-03-28T15:53:03.134Z,6.22
2023-03-28T15:55:30.263Z,5.82
2023-03-28T15:57:57.423Z,5.95
2023-03-28T16:00:38.365Z,6.53
2023-03-28T16:03:19.702Z,3.40
2023-03-28T16:05:50.539Z,6.55
2023-03-28T16:08:24.028Z,7.35
2023-03-28T16:10:51.116Z,6.07
2023-03-28T16:13:18.658Z,9.38
2023-03-28T16:15:45.867Z,9.40
2023-03-28T16:18:13.014Z,11.15
2023-03-28T16:20:40.381Z,4.93
2023-03-28T16:23:07.963Z,7.10
2023-03-28T16:25:35.165Z,7.72
2023-03-28T16:28:02.198Z,5.55
2023-03-28T16:30:30.756Z,6.40
2023-03-28T16:32:57.960Z,6.45
2023-03-28T16:35:27.060Z,9.55
2023-03-28T16:37:54.167Z,4.40
2023-03-28T16:40:21.654Z,10.73
2023-03-28T16:42:48.704Z,8.20
2023-03-28T16:45:16.099Z,5.40
2023-03-28T16:47:43.287Z,11.27
2023-03-28T16:50:10.460Z,5.47
2023-03-28T16:52:40.535Z,5.18
2023-03-28T16:55:08.433Z,6.32
2023-03-28T16:57:35.556Z,5.22
2023-03-28T17:00:04.505Z,4.85
2023-03-28T17:02:31.913Z,5.20
2023-03-28T17:04:59.051Z,10.38
2023-03-28T17:07:26.102Z,9.45
2023-03-28T17:09:53.167Z,3.00
2023-03-28T17:12:21.211Z,8.68
2023-03-28T17:14:48.369Z,9.52
2023-03-28T17:17:15.576Z,6.07
2023-03-28T17:19:43.151Z,6.40
2023-03-28T17:22:10.283Z,5.25
2023-03-28T17:24:38.270Z,4.68
2023-03-28T17:27:05.386Z,6.30
2023-03-28T17:29:32.664Z,4.82
2023-03-28T17:31:59.751Z,7.80
2023-03-28T17:34:26.994Z,7.30
2023-03-28T17:36:54.149Z,7.80
2023-03-28T17:39:22.084Z,10.10
2023-03-28T17:41:49.175Z,5.35
2023-03-28T17:44:16.637Z,7.57
2023-03-28T17:46:44.588Z,4.07
2023-03-28T17:49:11.702Z,10.93
2023-03-28T17:51:39.275Z,6.63
2023-03-28T17:54:11.964Z,6.07
2023-03-28T17:56:39.716Z,6.80
2023-03-28T17:59:07.399Z,5.43
2023-03-28T18:01:34.554Z,5.68
2023-03-28T18:04:01.803Z,7.22
2023-03-28T18:06:28.978Z,4.95
2023-03-28T18:08:56.065Z,4.43
2023-03-28T18:11:23.191Z,8.63
2023-03-28T18:13:52.613Z,7.40
2023-03-28T18:16:19.774Z,8.88
2023-03-28T18:18:47.192Z,5.13
2023-03-28T18:21:14.260Z,7.13
2023-03-28T18:23:41.427Z,9.13
2023-03-28T18:26:09.119Z,7.50
2023-03-28T18:28:36.791Z,7.32
2023-03-28T18:31:11.332Z,6.70
2023-03-28T18:33:38.879Z,8.73
2023-03-28T18:36:06.228Z,7.75
2023-03-28T18:38:37.054Z,5.30
2023-03-28T18:41:04.134Z,8.82
2023-03-28T18:43:31.322Z,7.15
2023-03-28T18:46:00.881Z,5.68
2023-03-28T18:48:29.095Z,15.83
2023-03-28T18:50:58.472Z,9.35
2023-03-28T18:53:27.580Z,7.78
2023-03-28T18:55:54.873Z,7.85
2023-03-28T18:58:26.060Z,7.32
2023-03-28T19:01:00.248Z,9.30
2023-03-28T19:03:27.957Z,10.93
2023-03-28T19:05:56.321Z,8.73
2023-03-28T19:08:26.052Z,10.18
2023-03-28T19:10:53.952Z,10.03
2023-03-28T19:13:21.267Z,10.00
2023-03-28T19:15:48.412Z,9.55
2023-03-28T19:18:15.538Z,10.65
2023-03-28T19:20:42.640Z,8.02
2023-03-28T19:23:09.765Z,6.63
2023-03-28T19:25:36.844Z,11.35
2023-03-28T19:28:03.940Z,7.03
2023-03-28T19:30:31.188Z,8.75
2023-03-28T19:32:58.614Z,6.07
2023-03-28T19:35:25.810Z,6.75
2023-03-28T19:37:52.941Z,7.32
2023-03-28T19:40:20.031Z,8.98
2023-03-28T19:42:47.189Z,10.15
2023-03-28T19:45:14.384Z,8.20
2023-03-28T19:47:41.441Z,7.18
2023-03-28T19:50:11.184Z,8.48
2023-03-28T19:52:39.479Z,10.33
2023-03-28T19:55:07.278Z,7.97
2023-03-28T19:57:34.387Z,9.48
2023-03-28T20:00:01.500Z,10.55
2023-03-28T20:02:28.955Z,10.00
2023-03-28T20:04:56.838Z,9.68
2023-03-28T20:07:24.606Z,13.57
2023-03-28T20:09:51.777Z,13.10
2023-03-28T20:12:19.007Z,13.93
2023-03-28T20:14:46.135Z,9.90
2023-03-28T20:17:13.302Z,11.18
2023-03-28T20:19:40.700Z,14.38
2023-03-28T20:22:07.907Z,8.82
2023-03-28T20:24:34.981Z,7.18
2023-03-28T20:27:02.197Z,8.55
2023-03-28T20:29:29.872Z,11.55
2023-03-28T20:31:57.055Z,10.32
2023-03-28T20:34:24.236Z,6.65
2023-03-28T20:36:51.330Z,8.88
2023-03-28T20:39:18.412Z,8.60
2023-03-28T20:41:45.498Z,8.10
2023-03-28T20:44:19.899Z,8.20
2023-03-28T20:46:48.848Z,4.18
2023-03-28T20:49:17.878Z,6.70
2023-03-28T20:51:44.980Z,5.45
2023-03-28T20:54:12.123Z,8.48
2023-03-28T20:56:39.400Z,7.70
2023-03-28T20:59:06.534Z,7.93
2023-03-28T21:01:39.511Z,11.18
2023-03-28T21:04:07.113Z,7.75
2023-03-28T21:06:35.965Z,10.75
2023-03-28T21:09:04.565Z,8.07
2023-03-28T21:11:32.448Z,5.20
2023-03-28T21:14:00.128Z,8.18
2023-03-28T21:16:27.672Z,7.95
2023-03-28T21:18:54.815Z,8.77
2023-03-28T21:21:22.097Z,7.40
2023-03-28T21:23:49.255Z,7.38
2023-03-28T21:26:17.426Z,6.07
2023-03-28T21:28:44.795Z,9.45
2023-03-28T21:31:16.029Z,10.32
2023-03-28T21:33:43.121Z,5.72
2023-03-28T21:36:14.082Z,7.63
2023-03-28T21:38:41.616Z,10.48
2023-03-28T21:41:08.750Z,7.10
2023-03-28T21:43:36.192Z,7.55
2023-03-28T21:46:03.659Z,5.82
2023-03-28T21:48:31.021Z,5.60
2023-03-28T21:50:59.306Z,6.38
2023-03-28T21:53:27.202Z,5.57
2023-03-28T21:55:56.026Z,7.25
2023-03-28T21:58:23.582Z,4.00
2023-03-28T22:00:50.948Z,4.65
2023-03-28T22:03:18.259Z,5.57
2023-03-28T22:05:45.556Z,7.78
2023-03-28T22:08:12.943Z,7.50
2023-03-28T22:10:47.042Z,5.03
2023-03-28T22:13:14.157Z,7.53
2023-03-28T22:15:41.185Z,5.22
2023-03-28T22:18:09.399Z,7.32
2023-03-28T22:20:36.920Z,7.50
2023-03-28T22:23:04.371Z,10.23
2023-03-28T22:25:34.845Z,7.05
2023-03-28T22:30:29.043Z,5.97
2023-03-28T22:32:56.163Z,5.28
2023-03-28T22:35:23.432Z,7.45
2023-03-28T22:37:50.484Z,6.15
2023-03-28T22:40:18.872Z,9.55
2023-03-28T22:42:46.844Z,6.10
2023-03-28T22:45:15.034Z,5.70
2023-03-28T22:47:42.194Z,11.43
2023-03-28T22:50:11.244Z,9.27
2023-03-28T22:52:38.905Z,4.78
2023-03-28T22:55:06.310Z,6.93
2023-03-28T22:57:33.430Z,9.15
2023-03-28T23:00:01.664Z,5.70
2023-03-28T23:02:29.118Z,5.38
2023-03-28T23:04:57.088Z,11.30
2023-03-28T23:07:24.160Z,6.28
2023-03-28T23:09:51.938Z,4.18
2023-03-28T23:12:18.989Z,5.80
2023-03-28T23:14:46.604Z,6.15
2023-03-28T23:17:16.614Z,6.13
2023-03-28T23:19:43.902Z,5.70
2023-03-28T23:22:10.989Z,6.55
2023-03-28T23:24:38.080Z,5.40
2023-03-28T23:27:07.067Z,6.72
2023-03-28T23:29:34.175Z,4.43
2023-03-28T23:32:01.263Z,3.88
2023-03-28T23:34:28.470Z,5.40
2023-03-28T23:36:57.999Z,4.10
2023-03-28T23:39:25.142Z,6.05
2023-03-28T23:41:52.198Z,5.90
2023-03-28T23:44:19.283Z,4.18
2023-03-28T23:46:49.587Z,6.15
2023-03-28T23:49:17.360Z,7.25
2023-03-28T23:51:44.413Z,4.55
2023-03-28T23:54:12.525Z,5.63
2023-03-28T23:56:39.822Z,9.32
2023-03-28T23:59:06.886Z,6.72
